createdAt,value
2022-10-02T00:01:14.751Z,1.70
2022-10-02T00:03:43.948Z,1.70
2022-10-02T00:06:14.512Z,1.75
2022-10-02T00:08:42.582Z,1.50
2022-10-02T00:11:13.882Z,1.25
2022-10-02T00:13:43.881Z,1.52
2022-10-02T00:16:17.158Z,1.30
2022-10-02T00:18:44.907Z,1.60
2022-10-02T00:21:15.296Z,1.45
2022-10-02T00:23:44.672Z,1.35
2022-10-02T00:26:15.666Z,1.33
2022-10-02T00:28:46.847Z,1.42
2022-10-02T00:31:28.095Z,1.65
2022-10-02T00:34:00.231Z,1.40
2022-10-02T00:36:35.944Z,1.67
2022-10-02T00:39:06.778Z,1.30
2022-10-02T00:41:45.762Z,1.42
2022-10-02T00:44:22.800Z,3.10
2022-10-02T00:46:54.747Z,1.17
2022-10-02T00:49:31.210Z,1.23
2022-10-02T00:52:05.814Z,1.60
2022-10-02T00:54:48.056Z,1.05
2022-10-02T00:57:19.571Z,1.40
2022-10-02T00:59:52.805Z,1.10
2022-10-02T01:02:37.833Z,1.70
2022-10-02T01:05:09.221Z,0.93
2022-10-02T01:07:37.707Z,1.02
2022-10-02T01:10:05.251Z,1.20
2022-10-02T01:12:32.645Z,2.03
2022-10-02T01:15:00.036Z,1.73
2022-10-02T01:17:28.890Z,1.42
2022-10-02T01:19:56.570Z,1.50
2022-10-02T01:22:29.120Z,1.40
2022-10-02T01:24:58.116Z,1.67
2022-10-02T01:27:26.190Z,1.52
2022-10-02T01:29:56.386Z,1.25
2022-10-02T01:32:25.890Z,1.65
2022-10-02T01:34:53.976Z,1.30
2022-10-02T01:37:22.235Z,1.92
2022-10-02T01:39:49.605Z,2.05
2022-10-02T01:42:18.430Z,1.45
2022-10-02T01:44:46.327Z,2.42
2022-10-02T01:47:15.915Z,1.45
2022-10-02T01:49:48.187Z,1.48
2022-10-02T01:52:27.034Z,1.60
2022-10-02T01:55:03.919Z,1.70
2022-10-02T01:57:37.491Z,1.48
2022-10-02T02:00:08.285Z,2.00
2022-10-02T02:02:42.605Z,1.83
2022-10-02T02:05:17.162Z,1.35
2022-10-02T02:07:46.971Z,1.67
2022-10-02T02:10:18.063Z,1.80
2022-10-02T02:15:19.685Z,1.73
2022-10-02T02:17:48.740Z,1.40
2022-10-02T02:20:17.640Z,1.77
2022-10-02T02:22:45.928Z,2.20
2022-10-02T02:25:14.853Z,1.83
2022-10-02T02:27:43.852Z,1.80
2022-10-02T02:30:13.472Z,1.73
2022-10-02T02:32:43.900Z,1.80
2022-10-02T02:35:15.398Z,1.50
2022-10-02T02:37:44.319Z,1.40
2022-10-02T02:40:13.433Z,1.58
2022-10-02T02:42:43.039Z,2.33
2022-10-02T02:45:12.876Z,1.75
2022-10-02T02:47:46.247Z,1.60
2022-10-02T02:50:16.430Z,1.70
2022-10-02T02:52:46.220Z,1.52
2022-10-02T02:55:14.456Z,2.15
2022-10-02T02:57:45.139Z,1.83
2022-10-02T03:00:13.864Z,1.77
2022-10-02T03:02:42.605Z,1.70
2022-10-02T03:05:13.460Z,1.95
2022-10-02T03:07:41.093Z,1.67
2022-10-02T03:10:11.767Z,1.85
2022-10-02T03:12:44.739Z,1.60
2022-10-02T03:15:16.954Z,2.03
2022-10-02T03:17:57.788Z,1.50
2022-10-02T03:20:29.375Z,1.58
2022-10-02T03:23:01.631Z,1.95
2022-10-02T03:25:31.974Z,1.60
2022-10-02T03:28:03.357Z,1.65
2022-10-02T03:30:31.520Z,1.70
2022-10-02T03:33:01.064Z,1.73
2022-10-02T03:35:29.805Z,1.70
2022-10-02T03:37:59.325Z,1.70
2022-10-02T03:40:27.555Z,1.73
2022-10-02T03:42:58.218Z,1.70
2022-10-02T03:45:46.639Z,1.60
2022-10-02T03:48:14.863Z,2.13
2022-10-02T03:50:42.222Z,1.75
2022-10-02T03:53:11.828Z,1.70
2022-10-02T03:55:41.337Z,1.77
2022-10-02T03:58:13.046Z,1.75
2022-10-02T04:00:42.911Z,1.90
2022-10-02T04:03:12.077Z,1.50
2022-10-02T04:05:43.032Z,1.80
2022-10-02T04:08:11.738Z,1.50
2022-10-02T04:10:44.864Z,1.98
2022-10-02T04:13:15.449Z,1.60
2022-10-02T04:15:52.134Z,1.52
2022-10-02T04:18:22.506Z,1.60
2022-10-02T04:20:53.448Z,2.03
2022-10-02T04:23:22.635Z,1.85
2022-10-02T04:25:53.466Z,3.45
2022-10-02T04:28:22.741Z,2.10
2022-10-02T04:30:52.579Z,1.58
2022-10-02T04:33:20.785Z,1.90
2022-10-02T04:35:53.912Z,1.70
2022-10-02T04:38:35.302Z,1.90
2022-10-02T04:41:13.965Z,1.27
2022-10-02T04:43:47.042Z,2.20
2022-10-02T04:46:23.834Z,1.40
2022-10-02T04:48:59.925Z,2.00
2022-10-02T04:51:33.391Z,1.73
2022-10-02T04:54:18.497Z,1.48
2022-10-02T04:57:02.232Z,1.27
2022-10-02T04:59:34.133Z,1.17
2022-10-02T05:02:06.529Z,1.50
2022-10-02T05:04:43.572Z,1.15
2022-10-02T05:07:16.771Z,1.17
2022-10-02T05:09:49.032Z,1.83
2022-10-02T05:12:27.945Z,1.63
2022-10-02T05:15:04.402Z,1.02
2022-10-02T05:17:38.728Z,1.50
2022-10-02T05:20:18.329Z,1.42
2022-10-02T05:22:56.139Z,1.02
2022-10-02T05:25:33.633Z,1.17
2022-10-02T05:28:09.224Z,1.27
2022-10-02T05:30:39.634Z,1.27
2022-10-02T05:33:22.613Z,1.52
2022-10-02T05:35:57.611Z,1.40
2022-10-02T05:38:32.527Z,1.30
2022-10-02T05:41:02.003Z,1.48
2022-10-02T05:43:34.118Z,1.02
2022-10-02T05:46:05.050Z,1.50
2022-10-02T05:48:35.679Z,2.13
2022-10-02T05:51:06.098Z,1.17
2022-10-02T05:53:35.913Z,1.30
2022-10-02T05:56:06.365Z,1.10
2022-10-02T05:58:37.729Z,1.67
2022-10-02T06:01:07.250Z,1.27
2022-10-02T06:03:37.074Z,1.13
2022-10-02T06:06:08.212Z,1.30
2022-10-02T06:08:37.494Z,1.20
2022-10-02T06:11:07.876Z,1.25
2022-10-02T06:13:39.299Z,1.40
2022-10-02T06:16:10.716Z,1.45
2022-10-02T06:18:39.354Z,1.80
2022-10-02T06:21:09.076Z,1.38
2022-10-02T06:23:38.413Z,1.77
2022-10-02T06:26:08.521Z,1.38
2022-10-02T06:28:39.330Z,1.67
2022-10-02T06:31:11.266Z,1.50
2022-10-02T06:33:38.832Z,1.92
2022-10-02T06:36:24.147Z,1.63
2022-10-02T06:39:02.734Z,1.55
2022-10-02T06:41:35.264Z,1.90
2022-10-02T06:44:08.754Z,2.60
2022-10-02T06:46:39.664Z,1.77
2022-10-02T06:49:10.811Z,2.30
2022-10-02T06:51:44.210Z,1.67
2022-10-02T06:54:30.899Z,2.00
2022-10-02T06:57:06.440Z,1.90
2022-10-02T06:59:42.899Z,1.67
2022-10-02T07:02:17.389Z,2.15
2022-10-02T07:05:00.436Z,1.83
2022-10-02T07:07:35.096Z,2.80
2022-10-02T07:10:17.526Z,2.47
2022-10-02T07:12:54.903Z,2.10
2022-10-02T07:15:31.965Z,2.42
2022-10-02T07:18:04.869Z,2.90
2022-10-02T07:20:34.600Z,2.70
2022-10-02T07:23:12.731Z,2.53
2022-10-02T07:25:52.904Z,2.58
2022-10-02T07:28:23.954Z,2.78
2022-10-02T07:30:56.364Z,3.38
2022-10-02T07:33:30.101Z,2.00
2022-10-02T07:36:02.081Z,2.65
2022-10-02T07:38:44.070Z,2.17
2022-10-02T07:41:18.071Z,2.38
2022-10-02T07:43:49.025Z,2.35
2022-10-02T07:46:20.859Z,2.42
2022-10-02T07:48:55.336Z,2.88
2022-10-02T07:51:49.719Z,2.90
2022-10-02T07:54:30.118Z,2.63
2022-10-02T07:56:59.234Z,2.60
2022-10-02T07:59:26.941Z,3.40
2022-10-02T08:01:56.072Z,2.50
2022-10-02T08:04:31.358Z,2.38
2022-10-02T08:07:03.660Z,2.38
2022-10-02T08:09:33.487Z,2.67
2022-10-02T08:12:02.763Z,2.60
2022-10-02T08:14:35.369Z,3.40
2022-10-02T08:17:09.765Z,2.13
2022-10-02T08:19:39.276Z,1.98
2022-10-02T08:22:11.243Z,2.20
2022-10-02T08:24:41.655Z,2.20
2022-10-02T08:27:13.710Z,2.30
2022-10-02T08:29:44.451Z,2.63
2022-10-02T08:32:13.325Z,2.45
2022-10-02T08:34:41.601Z,2.55
2022-10-02T08:37:16.924Z,2.20
2022-10-02T08:39:53.011Z,2.30
2022-10-02T08:42:38.278Z,2.20
2022-10-02T08:45:22.576Z,2.15
2022-10-02T08:48:15.418Z,2.00
2022-10-02T08:50:57.652Z,2.20
2022-10-02T08:53:39.903Z,2.38
2022-10-02T08:56:20.274Z,2.00
2022-10-02T08:59:06.348Z,2.55
2022-10-02T09:01:42.997Z,2.53
2022-10-02T09:04:28.258Z,2.40
2022-10-02T09:07:11.557Z,2.30
2022-10-02T09:09:59.754Z,2.33
2022-10-02T09:12:45.202Z,2.38
2022-10-02T09:15:16.897Z,2.97
2022-10-02T09:17:46.040Z,1.88
2022-10-02T09:20:31.334Z,2.03
2022-10-02T09:23:10.550Z,2.60
2022-10-02T09:25:38.746Z,2.10
2022-10-02T09:28:32.543Z,3.00
2022-10-02T09:31:09.703Z,2.65
2022-10-02T09:34:00.075Z,2.83
2022-10-02T09:39:19.293Z,2.10
2022-10-02T09:42:06.197Z,2.22
2022-10-02T09:45:00.970Z,2.13
2022-10-02T09:47:44.261Z,2.40
2022-10-02T09:50:21.809Z,1.92
2022-10-02T09:53:12.512Z,1.98
2022-10-02T09:56:05.439Z,2.38
2022-10-02T09:58:51.701Z,2.10
2022-10-02T10:01:34.013Z,2.13
2022-10-02T10:04:22.316Z,1.70
2022-10-02T10:07:07.338Z,2.15
2022-10-02T10:09:49.554Z,1.80
2022-10-02T10:12:28.939Z,1.88
2022-10-02T10:15:15.572Z,1.52
2022-10-02T10:17:59.486Z,1.70
2022-10-02T10:20:41.736Z,2.03
2022-10-02T10:23:18.587Z,1.90
2022-10-02T10:26:10.620Z,2.03
2022-10-02T10:28:48.138Z,2.50
2022-10-02T10:31:38.250Z,2.30
2022-10-02T10:34:26.873Z,2.45
2022-10-02T10:37:16.413Z,3.03
2022-10-02T10:40:02.378Z,2.85
2022-10-02T10:43:06.923Z,2.35
2022-10-02T10:45:44.084Z,2.95
2022-10-02T10:48:18.607Z,2.15
2022-10-02T10:50:50.077Z,3.40
2022-10-02T10:53:24.846Z,3.55
2022-10-02T10:56:09.194Z,3.33
2022-10-02T10:58:44.211Z,3.17
2022-10-02T11:01:17.546Z,3.30
2022-10-02T11:03:58.286Z,3.33
2022-10-02T11:06:45.956Z,2.80
2022-10-02T11:09:31.305Z,3.30
2022-10-02T11:12:09.517Z,3.80
2022-10-02T11:14:43.839Z,2.45
2022-10-02T11:17:19.741Z,2.55
2022-10-02T11:19:53.021Z,2.50
2022-10-02T11:22:28.030Z,2.22
2022-10-02T11:25:02.267Z,2.00
2022-10-02T11:27:34.174Z,2.35
2022-10-02T11:30:21.531Z,2.25
2022-10-02T11:32:58.015Z,2.00
2022-10-02T11:35:30.883Z,3.30
2022-10-02T11:38:09.804Z,2.55
2022-10-02T11:40:46.874Z,2.90
2022-10-02T11:43:25.667Z,2.63
2022-10-02T11:46:01.177Z,2.80
2022-10-02T11:48:50.608Z,3.25
2022-10-02T11:51:27.420Z,3.05
2022-10-02T11:54:12.525Z,3.65
2022-10-02T11:56:47.037Z,3.40
2022-10-02T11:59:38.065Z,3.00
2022-10-02T12:02:11.573Z,2.40
2022-10-02T12:04:49.807Z,2.28
2022-10-02T12:07:24.414Z,2.45
2022-10-02T12:09:59.569Z,1.48
2022-10-02T12:12:36.377Z,2.08
2022-10-02T12:15:10.242Z,1.67
2022-10-02T12:17:53.166Z,1.83
2022-10-02T12:20:42.756Z,1.85
2022-10-02T12:23:33.593Z,1.77
2022-10-02T12:26:21.847Z,1.40
2022-10-02T12:28:56.048Z,1.73
2022-10-02T12:31:28.608Z,1.75
2022-10-02T12:34:01.153Z,1.85
2022-10-02T12:36:34.953Z,1.60
2022-10-02T12:39:08.764Z,1.55
2022-10-02T12:41:52.264Z,1.58
2022-10-02T12:44:42.144Z,1.58
2022-10-02T12:47:20.287Z,1.33
2022-10-02T12:49:51.729Z,1.48
2022-10-02T12:52:34.418Z,1.30
2022-10-02T12:55:29.936Z,1.60
2022-10-02T12:58:02.918Z,1.48
2022-10-02T13:00:33.711Z,1.33
2022-10-02T13:03:08.780Z,1.50
2022-10-02T13:05:47.023Z,1.50
2022-10-02T13:08:24.572Z,1.50
2022-10-02T13:10:58.059Z,1.48
2022-10-02T13:13:40.339Z,1.55
2022-10-02T13:16:11.578Z,1.25
2022-10-02T13:18:48.583Z,1.30
2022-10-02T13:23:47.674Z,1.33
2022-10-02T13:26:22.173Z,1.52
2022-10-02T13:29:02.385Z,0.93
2022-10-02T13:31:41.307Z,1.65
2022-10-02T13:34:20.815Z,0.98
2022-10-02T13:36:52.634Z,1.17
2022-10-02T13:39:32.790Z,0.90
2022-10-02T13:42:09.983Z,1.02
2022-10-02T13:44:40.719Z,1.17
2022-10-02T13:47:16.772Z,1.60
2022-10-02T13:49:54.099Z,1.02
2022-10-02T13:52:26.564Z,1.10
2022-10-02T13:54:59.831Z,1.30
2022-10-02T13:57:35.450Z,1.23
2022-10-02T14:00:09.049Z,1.08
2022-10-02T14:02:42.361Z,1.30
2022-10-02T14:05:15.882Z,1.23
2022-10-02T14:07:57.680Z,1.10
2022-10-02T14:10:31.027Z,1.20
2022-10-02T14:13:07.580Z,1.25
2022-10-02T14:15:44.761Z,0.93
2022-10-02T14:18:26.633Z,0.90
2022-10-02T14:20:56.182Z,0.95
2022-10-02T14:23:36.108Z,0.70
2022-10-02T14:26:08.866Z,0.80
2022-10-02T14:28:50.510Z,1.08
2022-10-02T14:31:27.099Z,0.82
2022-10-02T14:34:03.629Z,0.88
2022-10-02T14:36:35.132Z,0.68
2022-10-02T14:39:14.047Z,0.90
2022-10-02T14:41:56.776Z,0.80
2022-10-02T14:44:36.042Z,0.80
2022-10-02T14:47:19.071Z,1.10
2022-10-02T14:49:55.487Z,0.50
2022-10-02T14:52:38.783Z,0.70
2022-10-02T14:57:45.547Z,0.77
2022-10-02T15:00:18.026Z,0.70
2022-10-02T15:03:01.948Z,0.73
2022-10-02T15:05:39.795Z,0.88
2022-10-02T15:08:12.683Z,0.82
2022-10-02T15:10:42.327Z,0.60
2022-10-02T15:13:11.294Z,0.80
2022-10-02T15:15:42.127Z,0.60
2022-10-02T15:18:21.185Z,0.80
2022-10-02T15:20:55.070Z,0.77
2022-10-02T15:23:24.447Z,0.63
2022-10-02T15:26:01.663Z,0.70
2022-10-02T15:28:37.220Z,0.80
2022-10-02T15:31:12.772Z,0.80
2022-10-02T15:33:43.391Z,0.80
2022-10-02T15:36:15.675Z,0.80
2022-10-02T15:39:03.819Z,1.35
2022-10-02T15:41:37.595Z,0.80
2022-10-02T15:44:09.287Z,0.85
2022-10-02T15:46:44.311Z,0.93
2022-10-02T15:49:14.327Z,0.95
2022-10-02T15:51:49.051Z,0.70
2022-10-02T15:54:25.546Z,0.90
2022-10-02T15:57:00.733Z,0.80
2022-10-02T15:59:33.147Z,0.70
2022-10-02T16:02:12.803Z,0.80
2022-10-02T16:04:45.639Z,0.93
2022-10-02T16:07:45.932Z,0.80
2022-10-02T16:10:21.494Z,0.80
2022-10-02T16:13:04.732Z,0.93
2022-10-02T16:15:40.176Z,1.10
2022-10-02T16:18:20.107Z,1.15
2022-10-02T16:20:51.677Z,1.10
2022-10-02T16:23:25.981Z,1.10
2022-10-02T16:26:08.238Z,1.08
2022-10-02T16:28:48.050Z,0.95
2022-10-02T16:31:22.527Z,1.20
2022-10-02T16:33:57.482Z,1.40
2022-10-02T16:36:31.831Z,1.10
2022-10-02T16:39:12.951Z,1.50
2022-10-02T16:41:49.729Z,1.70
2022-10-02T16:44:25.146Z,1.55
2022-10-02T16:46:54.998Z,1.27
2022-10-02T16:49:31.600Z,1.50
2022-10-02T16:52:05.546Z,1.30
2022-10-02T16:54:38.751Z,1.60
2022-10-02T16:57:08.310Z,1.40
2022-10-02T16:59:43.470Z,1.27
2022-10-02T17:02:18.803Z,1.77
2022-10-02T17:04:53.463Z,1.88
2022-10-02T17:07:37.267Z,1.85
2022-10-02T17:10:19.055Z,1.50
2022-10-02T17:12:50.550Z,1.75
2022-10-02T17:15:21.874Z,2.42
2022-10-02T17:17:56.166Z,1.83
2022-10-02T17:20:27.138Z,1.70
2022-10-02T17:22:58.137Z,1.83
2022-10-02T17:25:29.608Z,1.75
2022-10-02T17:27:59.927Z,1.95
2022-10-02T17:30:28.892Z,1.63
2022-10-02T17:33:07.028Z,3.17
2022-10-02T17:35:40.800Z,1.88
2022-10-02T17:38:22.967Z,2.05
2022-10-02T17:40:54.242Z,2.17
2022-10-02T17:43:25.532Z,1.67
2022-10-02T17:45:58.260Z,1.80
2022-10-02T17:48:30.674Z,1.95
2022-10-02T17:51:31.300Z,1.90
2022-10-02T17:54:22.126Z,1.88
2022-10-02T17:57:06.264Z,2.13
2022-10-02T17:59:46.426Z,2.33
2022-10-02T18:02:22.044Z,1.73
2022-10-02T18:04:58.030Z,2.22
2022-10-02T18:07:33.248Z,2.00
2022-10-02T18:10:04.520Z,1.80
2022-10-02T18:12:42.377Z,2.10
2022-10-02T18:15:30.598Z,1.75
2022-10-02T18:18:02.018Z,2.20
2022-10-02T18:20:34.760Z,2.17
2022-10-02T18:23:07.212Z,2.38
2022-10-02T18:25:53.225Z,3.22
2022-10-02T18:28:33.152Z,2.25
2022-10-02T18:31:08.135Z,2.03
2022-10-02T18:33:50.450Z,2.50
2022-10-02T18:36:31.447Z,2.50
2022-10-02T18:39:02.315Z,2.58
2022-10-02T18:41:41.202Z,2.58
2022-10-02T18:44:15.387Z,2.67
2022-10-02T18:46:49.624Z,3.38
2022-10-02T18:49:25.667Z,3.38
2022-10-02T18:52:05.055Z,2.58
2022-10-02T18:54:37.430Z,2.95
2022-10-02T18:57:16.298Z,2.50
2022-10-02T18:59:49.202Z,2.97
2022-10-02T19:02:23.355Z,2.63
2022-10-02T19:04:58.248Z,3.00
2022-10-02T19:07:29.377Z,2.63
2022-10-02T19:10:12.027Z,2.50
2022-10-02T19:12:43.266Z,2.60
2022-10-02T19:15:19.255Z,2.88
2022-10-02T19:17:57.415Z,3.20
2022-10-02T19:20:40.726Z,3.03
2022-10-02T19:23:09.186Z,2.90
2022-10-02T19:25:37.318Z,2.65
2022-10-02T19:28:07.405Z,3.55
2022-10-02T19:30:35.047Z,3.45
2022-10-02T19:33:03.533Z,3.70
2022-10-02T19:35:32.540Z,2.83
2022-10-02T19:38:03.182Z,3.10
2022-10-02T19:40:34.128Z,2.88
2022-10-02T19:45:32.775Z,3.30
2022-10-02T19:48:01.185Z,3.13
2022-10-02T19:50:37.868Z,3.40
2022-10-02T19:53:07.675Z,2.95
2022-10-02T19:55:37.247Z,2.80
2022-10-02T19:58:08.626Z,3.33
2022-10-02T20:00:38.873Z,2.97
2022-10-02T20:03:08.895Z,2.58
2022-10-02T20:05:37.087Z,2.53
2022-10-02T20:08:07.627Z,2.25
2022-10-02T20:10:36.811Z,2.53
2022-10-02T20:13:07.831Z,2.60
2022-10-02T20:18:24.542Z,2.38
2022-10-02T20:20:53.660Z,2.45
2022-10-02T20:23:23.774Z,2.30
2022-10-02T20:25:53.213Z,2.10
2022-10-02T20:28:24.717Z,2.25
2022-10-02T20:30:53.910Z,1.73
2022-10-02T20:33:25.090Z,2.13
2022-10-02T20:35:55.562Z,1.80
2022-10-02T20:38:25.072Z,1.73
2022-10-02T20:40:54.303Z,2.67
2022-10-02T20:43:24.320Z,2.13
2022-10-02T20:45:58.629Z,2.03
2022-10-02T20:49:06.810Z,1.77
2022-10-02T20:51:44.550Z,1.55
2022-10-02T20:54:27.477Z,1.98
2022-10-02T20:57:14.949Z,2.40
2022-10-02T21:00:00.121Z,2.80
2022-10-02T21:02:39.222Z,1.73
2022-10-02T21:05:21.489Z,2.53
2022-10-02T21:08:09.026Z,2.00
2022-10-02T21:11:03.368Z,1.95
2022-10-02T21:13:50.640Z,1.50
2022-10-02T21:16:29.272Z,1.60
2022-10-02T21:19:09.534Z,1.70
2022-10-02T21:21:53.656Z,2.22
2022-10-02T21:24:36.497Z,1.63
2022-10-02T21:27:18.447Z,2.53
2022-10-02T21:29:53.824Z,2.47
2022-10-02T21:32:45.003Z,1.45
2022-10-02T21:35:31.851Z,1.95
2022-10-02T21:38:06.034Z,1.90
2022-10-02T21:40:47.762Z,1.75
2022-10-02T21:43:32.616Z,1.80
2022-10-02T21:46:22.955Z,1.52
2022-10-02T21:49:08.694Z,2.00
2022-10-02T21:51:48.710Z,1.45
2022-10-02T21:54:28.481Z,1.45
2022-10-02T21:57:26.210Z,1.55
2022-10-02T22:00:07.006Z,2.55
2022-10-02T22:02:53.767Z,1.88
2022-10-02T22:05:35.442Z,1.88
2022-10-02T22:08:13.043Z,1.52
2022-10-02T22:13:18.686Z,1.35
2022-10-02T22:15:50.333Z,2.25
2022-10-02T22:18:23.055Z,1.92
2022-10-02T22:21:08.554Z,2.35
2022-10-02T22:23:47.727Z,1.52
2022-10-02T22:26:25.214Z,1.70
2022-10-02T22:28:55.259Z,1.95
2022-10-02T22:31:34.857Z,1.58
2022-10-02T22:34:07.175Z,1.25
2022-10-02T22:36:44.728Z,2.22
2022-10-02T22:41:43.182Z,1.90
2022-10-02T22:44:18.916Z,1.98
2022-10-02T22:46:48.300Z,1.70
2022-10-02T22:49:19.276Z,1.20
2022-10-02T22:51:51.283Z,1.30
2022-10-02T22:54:22.724Z,1.70
2022-10-02T22:56:52.151Z,1.92
2022-10-02T22:59:23.955Z,1.60
2022-10-02T23:01:54.415Z,1.67
2022-10-02T23:04:23.862Z,1.63
2022-10-02T23:06:53.411Z,1.95
2022-10-02T23:09:22.692Z,1.65
2022-10-02T23:11:52.806Z,2.65
2022-10-02T23:14:24.952Z,1.88
2022-10-02T23:16:55.976Z,1.90
2022-10-02T23:21:53.005Z,1.88
2022-10-02T23:24:26.511Z,1.70
2022-10-02T23:26:55.491Z,1.92
2022-10-02T23:29:31.391Z,1.40
2022-10-02T23:32:02.883Z,1.73
2022-10-02T23:34:41.723Z,1.58
2022-10-02T23:37:14.877Z,1.77
2022-10-02T23:39:46.177Z,2.90
2022-10-02T23:42:14.975Z,1.80
2022-10-02T23:44:45.871Z,1.58
2022-10-02T23:47:20.779Z,1.60
2022-10-02T23:49:49.975Z,1.85
2022-10-02T23:52:37.752Z,2.15
2022-10-02T23:55:15.095Z,1.60
2022-10-02T23:57:49.458Z,1.88
